Terminal Aerodrome Forecast
Issued by NWS

Home | Current Version | Previous Version | Text Only | Print | Product List | Glossary On
Versions: 1 2 3 4 5 6 7 8 9 10 11 12 13 14 15 16 17
000
FTUS41 KPHI 022343
TAFMIV
TAF
KMIV 022343Z 0300/0324 VRB03KT P6SM SKC
     FM030400 00000KT 3SM BR SKC
      TEMPO 0308/0312 1/2SM FG SCT002
     FM031300 01005KT P6SM SCT250
     FM031900 33006KT P6SM FEW050 SCT250=

USA.gov is the U.S. government's official web portal to all federal, state and local government web resources and services.